sensor_id;sensor_type;location;lat;lon;timestamp;pressure;altitude;pressure_sealevel;temperature;humidity
78562;BME280;68963;52.138;5.446;2023-05-27T00:00:45;103168.91;;;9.45;79.50
78562;BME280;68963;52.138;5.446;2023-05-27T00:03:11;103176.22;;;9.41;79.91
78562;BME280;68963;52.138;5.446;2023-05-27T00:05:38;103175.03;;;9.34;80.01
78562;BME280;68963;52.138;5.446;2023-05-27T00:08:04;103183.41;;;9.28;80.68
78562;BME280;68963;52.138;5.446;2023-05-27T00:10:31;103177.66;;;9.23;80.33
78562;BME280;68963;52.138;5.446;2023-05-27T00:12:58;103184.03;;;9.21;80.93
78562;BME280;68963;52.138;5.446;2023-05-27T00:15:24;103175.88;;;9.24;80.92
78562;BME280;68963;52.138;5.446;2023-05-27T00:17:51;103187.22;;;9.24;80.95
78562;BME280;68963;52.138;5.446;2023-05-27T00:20:19;103186.91;;;9.17;80.79
78562;BME280;68963;52.138;5.446;2023-05-27T00:22:46;103171.22;;;9.16;80.87
78562;BME280;68963;52.138;5.446;2023-05-27T00:25:13;103174.56;;;9.18;81.04
78562;BME280;68963;52.138;5.446;2023-05-27T00:27:40;103172.91;;;9.17;80.93
78562;BME280;68963;52.138;5.446;2023-05-27T00:30:07;103169.94;;;9.10;81.11
78562;BME280;68963;52.138;5.446;2023-05-27T00:32:34;103168.50;;;9.06;81.52
78562;BME280;68963;52.138;5.446;2023-05-27T00:35:00;103169.69;;;9.02;81.84
78562;BME280;68963;52.138;5.446;2023-05-27T00:37:27;103167.31;;;8.99;81.77
78562;BME280;68963;52.138;5.446;2023-05-27T00:39:53;103165.97;;;8.93;82.18
78562;BME280;68963;52.138;5.446;2023-05-27T00:42:20;103157.25;;;8.82;82.38
78562;BME280;68963;52.138;5.446;2023-05-27T00:44:47;103157.50;;;8.79;82.78
78562;BME280;68963;52.138;5.446;2023-05-27T00:47:14;103153.88;;;8.68;83.17
78562;BME280;68963;52.138;5.446;2023-05-27T00:49:42;103158.44;;;8.66;83.38
78562;BME280;68963;52.138;5.446;2023-05-27T00:52:09;103156.78;;;8.65;83.75
78562;BME280;68963;52.138;5.446;2023-05-27T00:54:36;103155.09;;;8.64;83.97
78562;BME280;68963;52.138;5.446;2023-05-27T00:57:03;103142.44;;;8.58;84.19
78562;BME280;68963;52.138;5.446;2023-05-27T00:59:29;103147.78;;;8.57;84.40
78562;BME280;68963;52.138;5.446;2023-05-27T01:01:56;103145.66;;;8.51;84.61
78562;BME280;68963;52.138;5.446;2023-05-27T01:04:25;103138.34;;;8.54;84.77
78562;BME280;68963;52.138;5.446;2023-05-27T01:07:11;103133.59;;;8.48;84.88
78562;BME280;68963;52.138;5.446;2023-05-27T01:09:51;103139.81;;;8.47;84.82
78562;BME280;68963;52.138;5.446;2023-05-27T01:12:42;103139.28;;;8.42;84.97
78562;BME280;68963;52.138;5.446;2023-05-27T01:15:10;103135.09;;;8.39;85.15
78562;BME280;68963;52.138;5.446;2023-05-27T01:17:37;103138.59;;;8.40;85.24
78562;BME280;68963;52.138;5.446;2023-05-27T01:20:09;103138.59;;;8.40;85.49
78562;BME280;68963;52.138;5.446;2023-05-27T01:22:36;103141.66;;;8.34;85.79
78562;BME280;68963;52.138;5.446;2023-05-27T01:25:03;103140.69;;;8.35;86.00
78562;BME280;68963;52.138;5.446;2023-05-27T01:27:31;103141.88;;;8.31;85.99
78562;BME280;68963;52.138;5.446;2023-05-27T01:29:58;103143.53;;;8.32;85.98
78562;BME280;68963;52.138;5.446;2023-05-27T01:32:46;103142.94;;;8.28;86.18
78562;BME280;68963;52.138;5.446;2023-05-27T01:35:28;103138.78;;;8.26;86.40
78562;BME280;68963;52.138;5.446;2023-05-27T01:37:59;103140.56;;;8.25;86.74
78562;BME280;68963;52.138;5.446;2023-05-27T01:40:28;103139.09;;;8.21;86.84
78562;BME280;68963;52.138;5.446;2023-05-27T01:42:56;103139.69;;;8.24;86.73
78562;BME280;68963;52.138;5.446;2023-05-27T01:45:23;103135.31;;;8.25;87.03
78562;BME280;68963;52.138;5.446;2023-05-27T01:47:50;103135.31;;;8.25;87.03
78562;BME280;68963;52.138;5.446;2023-05-27T01:50:17;103133.50;;;8.14;87.17
78562;BME280;68963;52.138;5.446;2023-05-27T01:52:44;103130.84;;;8.03;87.90
78562;BME280;68963;52.138;5.446;2023-05-27T01:55:10;103129.63;;;7.96;88.33
78562;BME280;68963;52.138;5.446;2023-05-27T01:57:37;103134.97;;;7.94;88.66
78562;BME280;68963;52.138;5.446;2023-05-27T02:00:06;103145.59;;;7.93;88.60
78562;BME280;68963;52.138;5.446;2023-05-27T02:02:35;103140.22;;;7.94;89.02
78562;BME280;68963;52.138;5.446;2023-05-27T02:05:03;103143.66;;;7.95;88.66
78562;BME280;68963;52.138;5.446;2023-05-27T02:07:29;103137.72;;;7.93;88.79
78562;BME280;68963;52.138;5.446;2023-05-27T02:09:56;103140.56;;;7.90;88.88
78562;BME280;68963;52.138;5.446;2023-05-27T02:12:22;103146.63;;;7.90;88.95
78562;BME280;68963;52.138;5.446;2023-05-27T02:14:49;103153.31;;;7.94;88.92
78562;BME280;68963;52.138;5.446;2023-05-27T02:17:17;103150.59;;;7.96;88.96
78562;BME280;68963;52.138;5.446;2023-05-27T02:19:44;103153.44;;;7.93;88.88
78562;BME280;68963;52.138;5.446;2023-05-27T02:22:11;103142.13;;;7.92;88.78
78562;BME280;68963;52.138;5.446;2023-05-27T02:24:38;103149.25;;;7.90;89.03
78562;BME280;68963;52.138;5.446;2023-05-27T02:27:04;103136.63;;;7.84;88.83
78562;BME280;68963;52.138;5.446;2023-05-27T02:29:32;103142.91;;;7.82;89.19
78562;BME280;68963;52.138;5.446;2023-05-27T02:31:58;103135.13;;;7.80;89.32
78562;BME280;68963;52.138;5.446;2023-05-27T02:34:25;103134.66;;;7.75;89.21
78562;BME280;68963;52.138;5.446;2023-05-27T02:36:51;103124.72;;;7.67;89.91
78562;BME280;68963;52.138;5.446;2023-05-27T02:39:18;103130.41;;;7.61;89.81
78562;BME280;68963;52.138;5.446;2023-05-27T02:41:45;103128.25;;;7.55;89.95
78562;BME280;68963;52.138;5.446;2023-05-27T02:44:11;103130.47;;;7.48;90.40
78562;BME280;68963;52.138;5.446;2023-05-27T02:46:38;103131.44;;;7.47;90.36
78562;BME280;68963;52.138;5.446;2023-05-27T02:49:04;103131.84;;;7.41;90.84
78562;BME280;68963;52.138;5.446;2023-05-27T02:51:31;103127.44;;;7.42;91.24
78562;BME280;68963;52.138;5.446;2023-05-27T02:53:57;103129.78;;;7.34;91.48
78562;BME280;68963;52.138;5.446;2023-05-27T02:56:24;103128.97;;;7.33;91.44
78562;BME280;68963;52.138;5.446;2023-05-27T02:58:52;103128.97;;;7.33;91.70
78562;BME280;68963;52.138;5.446;2023-05-27T03:01:19;103138.16;;;7.39;91.69
78562;BME280;68963;52.138;5.446;2023-05-27T03:03:46;103134.81;;;7.37;91.52
78562;BME280;68963;52.138;5.446;2023-05-27T03:06:12;103142.44;;;7.40;91.54
78562;BME280;68963;52.138;5.446;2023-05-27T03:08:39;103144.13;;;7.41;91.41
78562;BME280;68963;52.138;5.446;2023-05-27T03:11:06;103139.72;;;7.41;91.15
78562;BME280;68963;52.138;5.446;2023-05-27T03:13:33;103144.56;;;7.35;91.53
78562;BME280;68963;52.138;5.446;2023-05-27T03:15:59;103141.94;;;7.35;91.54
78562;BME280;68963;52.138;5.446;2023-05-27T03:18:26;103133.47;;;7.31;91.55
78562;BME280;68963;52.138;5.446;2023-05-27T03:20:53;103146.91;;;7.26;91.89
78562;BME280;68963;52.138;5.446;2023-05-27T03:23:20;103148.91;;;7.23;91.94
78562;BME280;68963;52.138;5.446;2023-05-27T03:25:47;103142.28;;;7.17;91.94
78562;BME280;68963;52.138;5.446;2023-05-27T03:28:14;103141.78;;;7.12;92.15
78562;BME280;68963;52.138;5.446;2023-05-27T03:30:42;103140.34;;;7.08;92.65
78562;BME280;68963;52.138;5.446;2023-05-27T03:33:09;103140.84;;;7.13;92.99
78562;BME280;68963;52.138;5.446;2023-05-27T03:35:36;103141.78;;;7.12;92.59
78562;BME280;68963;52.138;5.446;2023-05-27T03:38:02;103136.69;;;7.11;92.78
78562;BME280;68963;52.138;5.446;2023-05-27T03:40:29;103129.31;;;7.16;92.93
78562;BME280;68963;52.138;5.446;2023-05-27T03:42:56;103128.28;;;7.18;92.78
78562;BME280;68963;52.138;5.446;2023-05-27T03:45:23;103129.59;;;7.24;92.86
78562;BME280;68963;52.138;5.446;2023-05-27T03:47:49;103132.34;;;7.22;93.17
78562;BME280;68963;52.138;5.446;2023-05-27T03:50:16;103123.66;;;7.22;92.85
78562;BME280;68963;52.138;5.446;2023-05-27T03:52:43;103125.66;;;7.18;92.94
78562;BME280;68963;52.138;5.446;2023-05-27T03:55:09;103114.53;;;7.15;93.53
78562;BME280;68963;52.138;5.446;2023-05-27T03:57:36;103117.03;;;7.16;93.40
78562;BME280;68963;52.138;5.446;2023-05-27T04:00:04;103111.09;;;7.14;93.24
78562;BME280;68963;52.138;5.446;2023-05-27T04:02:38;103117.47;;;7.10;93.30
78562;BME280;68963;52.138;5.446;2023-05-27T04:05:05;103115.94;;;7.08;93.65
78562;BME280;68963;52.138;5.446;2023-05-27T04:07:32;103112.63;;;7.17;93.60
78562;BME280;68963;52.138;5.446;2023-05-27T04:09:58;103108.00;;;7.20;93.39
78562;BME280;68963;52.138;5.446;2023-05-27T04:12:25;103108.53;;;7.25;93.46
78562;BME280;68963;52.138;5.446;2023-05-27T04:14:51;103114.41;;;7.29;92.98
78562;BME280;68963;52.138;5.446;2023-05-27T04:17:18;103114.41;;;7.29;93.16
78562;BME280;68963;52.138;5.446;2023-05-27T04:19:45;103106.75;;;7.26;93.26
78562;BME280;68963;52.138;5.446;2023-05-27T04:22:15;103105.78;;;7.27;93.54
78562;BME280;68963;52.138;5.446;2023-05-27T04:24:41;103108.13;;;7.19;93.58
78562;BME280;68963;52.138;5.446;2023-05-27T04:27:09;103105.72;;;7.16;94.38
78562;BME280;68963;52.138;5.446;2023-05-27T04:29:36;103107.41;;;7.17;94.73
78562;BME280;68963;52.138;5.446;2023-05-27T04:32:04;103116.50;;;7.24;94.48
78562;BME280;68963;52.138;5.446;2023-05-27T04:34:32;103106.63;;;7.28;94.50
78562;BME280;68963;52.138;5.446;2023-05-27T04:36:58;103111.44;;;7.34;94.89
78562;BME280;68963;52.138;5.446;2023-05-27T04:39:27;103109.53;;;7.36;94.81
78562;BME280;68963;52.138;5.446;2023-05-27T04:41:53;103102.50;;;7.36;94.49
78562;BME280;68963;52.138;5.446;2023-05-27T04:44:23;103108.47;;;7.38;95.07
78562;BME280;68963;52.138;5.446;2023-05-27T04:46:53;103112.56;;;7.42;95.10
78562;BME280;68963;52.138;5.446;2023-05-27T04:49:21;103113.91;;;7.48;95.24
78562;BME280;68963;52.138;5.446;2023-05-27T04:51:49;103097.84;;;7.53;95.19
78562;BME280;68963;52.138;5.446;2023-05-27T04:54:15;103103.47;;;7.59;95.38
78562;BME280;68963;52.138;5.446;2023-05-27T04:56:42;103093.59;;;7.63;95.34
78562;BME280;68963;52.138;5.446;2023-05-27T04:59:09;103095.66;;;7.70;94.99
78562;BME280;68963;52.138;5.446;2023-05-27T05:01:43;103095.19;;;7.77;95.07
78562;BME280;68963;52.138;5.446;2023-05-27T05:04:36;103087.91;;;7.80;94.89
78562;BME280;68963;52.138;5.446;2023-05-27T05:07:03;103088.53;;;7.84;94.98
78562;BME280;68963;52.138;5.446;2023-05-27T05:09:30;103097.00;;;7.87;95.18
78562;BME280;68963;52.138;5.446;2023-05-27T05:11:56;103088.91;;;7.90;94.88
78562;BME280;68963;52.138;5.446;2023-05-27T05:14:23;103088.06;;;7.90;95.18
78562;BME280;68963;52.138;5.446;2023-05-27T05:16:49;103088.56;;;7.95;95.55
78562;BME280;68963;52.138;5.446;2023-05-27T05:19:16;103096.81;;;8.02;95.51
78562;BME280;68963;52.138;5.446;2023-05-27T05:21:43;103097.53;;;8.04;95.76
78562;BME280;68963;52.138;5.446;2023-05-27T05:24:09;103096.22;;;8.09;95.51
78562;BME280;68963;52.138;5.446;2023-05-27T05:26:36;103083.63;;;8.14;95.41
78562;BME280;68963;52.138;5.446;2023-05-27T05:29:02;103102.09;;;8.24;95.42
78562;BME280;68963;52.138;5.446;2023-05-27T05:31:29;103087.78;;;8.28;95.10
78562;BME280;68963;52.138;5.446;2023-05-27T05:33:56;103080.19;;;8.36;95.33
78562;BME280;68963;52.138;5.446;2023-05-27T05:36:22;103077.59;;;8.48;95.27
78562;BME280;68963;52.138;5.446;2023-05-27T05:38:50;103073.41;;;8.56;94.87
78562;BME280;68963;52.138;5.446;2023-05-27T05:41:16;103080.59;;;8.65;94.90
78562;BME280;68963;52.138;5.446;2023-05-27T05:43:43;103071.84;;;8.76;94.79
78562;BME280;68963;52.138;5.446;2023-05-27T05:46:09;103081.28;;;8.90;94.47
78562;BME280;68963;52.138;5.446;2023-05-27T05:48:36;103078.88;;;8.98;93.89
78562;BME280;68963;52.138;5.446;2023-05-27T05:51:03;103075.88;;;9.03;93.99
78562;BME280;68963;52.138;5.446;2023-05-27T05:53:30;103077.38;;;9.16;93.95
78562;BME280;68963;52.138;5.446;2023-05-27T05:55:58;103091.03;;;9.22;93.25
78562;BME280;68963;52.138;5.446;2023-05-27T05:58:24;103084.06;;;9.32;92.79
78562;BME280;68963;52.138;5.446;2023-05-27T06:00:51;103071.13;;;9.40;92.58
78562;BME280;68963;52.138;5.446;2023-05-27T06:03:18;103076.50;;;9.38;91.85
78562;BME280;68963;52.138;5.446;2023-05-27T06:05:45;103077.31;;;9.50;92.27
78562;BME280;68963;52.138;5.446;2023-05-27T06:08:12;103077.97;;;9.63;91.90
78562;BME280;68963;52.138;5.446;2023-05-27T06:10:38;103068.94;;;9.77;91.50
78562;BME280;68963;52.138;5.446;2023-05-27T06:13:05;103064.56;;;9.87;91.91
78562;BME280;68963;52.138;5.446;2023-05-27T06:15:32;103069.88;;;9.97;91.51
78562;BME280;68963;52.138;5.446;2023-05-27T06:17:59;103058.59;;;10.06;90.87
78562;BME280;68963;52.138;5.446;2023-05-27T06:20:25;103057.22;;;10.12;90.36
78562;BME280;68963;52.138;5.446;2023-05-27T06:22:52;103048.56;;;10.21;90.61
78562;BME280;68963;52.138;5.446;2023-05-27T06:25:18;103045.88;;;10.32;90.64
78562;BME280;68963;52.138;5.446;2023-05-27T06:27:45;103043.56;;;10.39;90.34
78562;BME280;68963;52.138;5.446;2023-05-27T06:30:12;103034.72;;;10.50;90.83
78562;BME280;68963;52.138;5.446;2023-05-27T06:32:38;103033.13;;;10.68;90.62
78562;BME280;68963;52.138;5.446;2023-05-27T06:35:05;103027.31;;;10.84;89.96
78562;BME280;68963;52.138;5.446;2023-05-27T06:37:32;103030.56;;;10.97;89.29
78562;BME280;68963;52.138;5.446;2023-05-27T06:39:58;103029.41;;;11.00;89.04
78562;BME280;68963;52.138;5.446;2023-05-27T06:42:25;103026.53;;;11.12;89.11
78562;BME280;68963;52.138;5.446;2023-05-27T06:44:51;103025.13;;;11.18;88.44
78562;BME280;68963;52.138;5.446;2023-05-27T06:47:18;103029.44;;;11.29;88.16
78562;BME280;68963;52.138;5.446;2023-05-27T06:49:45;103023.22;;;11.40;87.52
78562;BME280;68963;52.138;5.446;2023-05-27T06:52:11;103017.78;;;11.41;86.57
78562;BME280;68963;52.138;5.446;2023-05-27T06:54:40;103026.25;;;11.54;87.65
78562;BME280;68963;52.138;5.446;2023-05-27T06:57:07;103013.19;;;11.72;86.56
78562;BME280;68963;52.138;5.446;2023-05-27T06:59:33;103013.03;;;11.93;86.30
78562;BME280;68963;52.138;5.446;2023-05-27T07:02:00;103011.44;;;12.10;85.62
78562;BME280;68963;52.138;5.446;2023-05-27T07:04:27;103007.53;;;12.14;84.65
78562;BME280;68963;52.138;5.446;2023-05-27T07:06:53;103003.03;;;12.24;85.51
78562;BME280;68963;52.138;5.446;2023-05-27T07:09:20;103009.38;;;12.41;84.37
78562;BME280;68963;52.138;5.446;2023-05-27T07:11:47;103005.00;;;12.50;83.55
78562;BME280;68963;52.138;5.446;2023-05-27T07:14:13;103005.38;;;12.55;82.05
78562;BME280;68963;52.138;5.446;2023-05-27T07:16:40;103002.38;;;12.50;82.77
78562;BME280;68963;52.138;5.446;2023-05-27T07:19:07;102994.69;;;12.56;82.27
78562;BME280;68963;52.138;5.446;2023-05-27T07:21:34;102991.53;;;12.71;82.18
78562;BME280;68963;52.138;5.446;2023-05-27T07:24:01;102996.53;;;12.92;82.77
78562;BME280;68963;52.138;5.446;2023-05-27T07:26:31;102993.13;;;12.99;81.17
78562;BME280;68963;52.138;5.446;2023-05-27T07:28:58;102992.72;;;13.04;80.75
78562;BME280;68963;52.138;5.446;2023-05-27T07:31:27;102996.25;;;13.13;79.02
78562;BME280;68963;52.138;5.446;2023-05-27T07:33:54;102997.06;;;12.95;79.06
78562;BME280;68963;52.138;5.446;2023-05-27T07:36:21;102990.94;;;13.13;79.82
78562;BME280;68963;52.138;5.446;2023-05-27T07:38:48;102987.28;;;13.23;78.62
78562;BME280;68963;52.138;5.446;2023-05-27T07:41:14;102999.91;;;13.29;77.68
78562;BME280;68963;52.138;5.446;2023-05-27T07:43:41;102999.59;;;13.33;76.70
78562;BME280;68963;52.138;5.446;2023-05-27T07:46:07;102986.69;;;13.29;76.20
78562;BME280;68963;52.138;5.446;2023-05-27T07:48:34;102990.97;;;13.31;78.76
78562;BME280;68963;52.138;5.446;2023-05-27T07:51:01;102993.09;;;13.45;77.37
78562;BME280;68963;52.138;5.446;2023-05-27T07:53:27;102989.28;;;13.47;76.23
78562;BME280;68963;52.138;5.446;2023-05-27T07:55:54;102979.06;;;13.52;75.20
78562;BME280;68963;52.138;5.446;2023-05-27T07:58:20;102960.38;;;13.54;77.16
78562;BME280;68963;52.138;5.446;2023-05-27T08:00:47;102970.44;;;13.76;76.89
78562;BME280;68963;52.138;5.446;2023-05-27T08:03:14;102970.97;;;13.80;74.59
78562;BME280;68963;52.138;5.446;2023-05-27T08:05:41;102962.06;;;13.81;75.54
78562;BME280;68963;52.138;5.446;2023-05-27T08:08:08;102953.84;;;13.92;74.10
78562;BME280;68963;52.138;5.446;2023-05-27T08:10:34;102954.28;;;13.88;74.26
78562;BME280;68963;52.138;5.446;2023-05-27T08:13:01;102942.97;;;14.12;75.53
78562;BME280;68963;52.138;5.446;2023-05-27T08:15:28;102944.53;;;14.31;74.14
78562;BME280;68963;52.138;5.446;2023-05-27T08:17:54;102931.25;;;14.14;73.07
78562;BME280;68963;52.138;5.446;2023-05-27T08:20:21;102927.19;;;14.02;73.53
78562;BME280;68963;52.138;5.446;2023-05-27T08:22:47;102932.19;;;14.05;74.17
78562;BME280;68963;52.138;5.446;2023-05-27T08:25:14;102929.31;;;13.90;73.87
78562;BME280;68963;52.138;5.446;2023-05-27T08:27:52;102926.38;;;13.67;73.15
78562;BME280;68963;52.138;5.446;2023-05-27T08:30:19;102919.03;;;13.61;74.94
78562;BME280;68963;52.138;5.446;2023-05-27T08:32:46;102924.44;;;13.77;75.57
78562;BME280;68963;52.138;5.446;2023-05-27T08:35:15;102924.72;;;14.00;76.14
78562;BME280;68963;52.138;5.446;2023-05-27T08:37:43;102923.81;;;14.18;73.17
78562;BME280;68963;52.138;5.446;2023-05-27T08:40:13;102921.94;;;14.10;72.22
78562;BME280;68963;52.138;5.446;2023-05-27T08:42:41;102921.31;;;14.24;74.68
78562;BME280;68963;52.138;5.446;2023-05-27T08:45:09;102919.88;;;14.38;71.96
78562;BME280;68963;52.138;5.446;2023-05-27T08:47:38;102910.59;;;14.42;71.76
78562;BME280;68963;52.138;5.446;2023-05-27T08:50:05;102900.19;;;14.49;70.73
78562;BME280;68963;52.138;5.446;2023-05-27T08:52:39;102897.75;;;14.56;70.92
78562;BME280;68963;52.138;5.446;2023-05-27T08:55:08;102890.47;;;14.74;70.31
78562;BME280;68963;52.138;5.446;2023-05-27T08:57:36;102895.59;;;14.84;70.11
78562;BME280;68963;52.138;5.446;2023-05-27T09:00:04;102892.47;;;14.80;69.18
78562;BME280;68963;52.138;5.446;2023-05-27T09:02:38;102893.28;;;14.89;70.47
78562;BME280;68963;52.138;5.446;2023-05-27T09:05:06;102891.28;;;15.07;69.55
78562;BME280;68963;52.138;5.446;2023-05-27T09:07:34;102884.16;;;15.08;68.48
78562;BME280;68963;52.138;5.446;2023-05-27T09:10:00;102871.06;;;15.14;69.11
78562;BME280;68963;52.138;5.446;2023-05-27T09:12:27;102874.72;;;15.13;68.67
78562;BME280;68963;52.138;5.446;2023-05-27T09:14:54;102865.88;;;15.13;68.20
78562;BME280;68963;52.138;5.446;2023-05-27T09:17:23;102878.16;;;15.30;68.77
78562;BME280;68963;52.138;5.446;2023-05-27T09:19:54;102868.19;;;15.40;66.20
78562;BME280;68963;52.138;5.446;2023-05-27T09:22:28;102871.97;;;15.46;67.64
78562;BME280;68963;52.138;5.446;2023-05-27T09:24:55;102868.44;;;15.62;67.80
78562;BME280;68963;52.138;5.446;2023-05-27T09:27:26;102865.13;;;15.68;67.59
78562;BME280;68963;52.138;5.446;2023-05-27T09:29:54;102865.22;;;15.83;67.90
78562;BME280;68963;52.138;5.446;2023-05-27T09:32:25;102857.72;;;15.94;65.49
78562;BME280;68963;52.138;5.446;2023-05-27T09:35:00;102858.44;;;15.80;65.58
78562;BME280;68963;52.138;5.446;2023-05-27T09:37:28;102853.91;;;15.89;66.86
78562;BME280;68963;52.138;5.446;2023-05-27T09:40:09;102857.00;;;16.01;65.74
78562;BME280;68963;52.138;5.446;2023-05-27T09:42:43;102846.16;;;16.10;65.46
78562;BME280;68963;52.138;5.446;2023-05-27T09:45:20;102849.59;;;16.19;63.40
78562;BME280;68963;52.138;5.446;2023-05-27T09:47:51;102849.50;;;16.35;60.22
78562;BME280;68963;52.138;5.446;2023-05-27T09:50:19;102850.88;;;16.23;61.13
78562;BME280;68963;52.138;5.446;2023-05-27T09:52:49;102840.03;;;16.33;64.00
78562;BME280;68963;52.138;5.446;2023-05-27T09:55:31;102843.03;;;16.53;63.17
78562;BME280;68963;52.138;5.446;2023-05-27T09:57:58;102839.69;;;16.59;64.05
78562;BME280;68963;52.138;5.446;2023-05-27T10:00:26;102834.22;;;16.75;62.64
78562;BME280;68963;52.138;5.446;2023-05-27T10:02:53;102828.50;;;16.63;60.46
78562;BME280;68963;52.138;5.446;2023-05-27T10:05:24;102832.78;;;16.50;60.05
78562;BME280;68963;52.138;5.446;2023-05-27T10:07:51;102826.09;;;16.54;62.35
78562;BME280;68963;52.138;5.446;2023-05-27T10:10:20;102821.16;;;16.65;61.58
78562;BME280;68963;52.138;5.446;2023-05-27T10:12:49;102818.59;;;16.95;61.17
78562;BME280;68963;52.138;5.446;2023-05-27T10:15:30;102811.91;;;17.29;60.87
78562;BME280;68963;52.138;5.446;2023-05-27T10:18:04;102811.81;;;17.52;59.04
78562;BME280;68963;52.138;5.446;2023-05-27T10:20:38;102809.44;;;17.57;57.95
78562;BME280;68963;52.138;5.446;2023-05-27T10:23:12;102812.72;;;17.59;57.80
78562;BME280;68963;52.138;5.446;2023-05-27T10:25:40;102809.22;;;17.58;57.11
78562;BME280;68963;52.138;5.446;2023-05-27T10:28:07;102802.41;;;17.71;56.10
78562;BME280;68963;52.138;5.446;2023-05-27T10:30:44;102796.31;;;17.92;55.28
78562;BME280;68963;52.138;5.446;2023-05-27T10:33:11;102797.47;;;18.04;55.97
78562;BME280;68963;52.138;5.446;2023-05-27T10:35:42;102786.56;;;18.20;56.53
78562;BME280;68963;52.138;5.446;2023-05-27T10:38:16;102785.28;;;18.38;54.10
78562;BME280;68963;52.138;5.446;2023-05-27T10:40:45;102787.00;;;18.24;52.09
78562;BME280;68963;52.138;5.446;2023-05-27T10:43:19;102776.41;;;18.30;54.12
78562;BME280;68963;52.138;5.446;2023-05-27T10:45:45;102777.44;;;18.57;55.46
78562;BME280;68963;52.138;5.446;2023-05-27T10:48:18;102773.41;;;18.68;50.30
78562;BME280;68963;52.138;5.446;2023-05-27T10:50:50;102772.53;;;18.61;49.33
78562;BME280;68963;52.138;5.446;2023-05-27T10:53:19;102767.13;;;18.76;51.54
78562;BME280;68963;52.138;5.446;2023-05-27T10:55:48;102761.47;;;18.86;51.99
78562;BME280;68963;52.138;5.446;2023-05-27T10:58:19;102759.66;;;18.99;52.89
78562;BME280;68963;52.138;5.446;2023-05-27T11:00:51;102755.28;;;19.20;50.56
78562;BME280;68963;52.138;5.446;2023-05-27T11:03:26;102754.91;;;19.29;49.50
78562;BME280;68963;52.138;5.446;2023-05-27T11:08:25;102755.38;;;19.46;49.51
78562;BME280;68963;52.138;5.446;2023-05-27T11:10:57;102749.25;;;19.59;49.03
78562;BME280;68963;52.138;5.446;2023-05-27T11:13:32;102747.59;;;19.58;49.43
78562;BME280;68963;52.138;5.446;2023-05-27T11:15:59;102744.38;;;19.63;50.12
78562;BME280;68963;52.138;5.446;2023-05-27T11:18:34;102744.38;;;19.69;49.17
78562;BME280;68963;52.138;5.446;2023-05-27T11:21:01;102738.44;;;19.74;48.56
78562;BME280;68963;52.138;5.446;2023-05-27T11:23:38;102722.41;;;19.74;47.42
78562;BME280;68963;52.138;5.446;2023-05-27T11:28:56;102718.69;;;19.95;48.89
78562;BME280;68963;52.138;5.446;2023-05-27T11:31:28;102716.88;;;20.15;46.15
78562;BME280;68963;52.138;5.446;2023-05-27T11:33:55;102714.22;;;20.22;47.04
78562;BME280;68963;52.138;5.446;2023-05-27T11:36:25;102695.63;;;20.47;47.56
78562;BME280;68963;52.138;5.446;2023-05-27T11:39:00;102697.31;;;20.48;46.13
78562;BME280;68963;52.138;5.446;2023-05-27T11:41:28;102699.16;;;20.47;45.36
78562;BME280;68963;52.138;5.446;2023-05-27T11:43:56;102695.25;;;20.57;45.92
78562;BME280;68963;52.138;5.446;2023-05-27T11:46:33;102679.91;;;20.90;46.87
78562;BME280;68963;52.138;5.446;2023-05-27T11:49:00;102683.94;;;21.13;45.28
78562;BME280;68963;52.138;5.446;2023-05-27T11:51:28;102676.81;;;21.38;45.72
78562;BME280;68963;52.138;5.446;2023-05-27T11:53:58;102672.19;;;21.14;43.65
78562;BME280;68963;52.138;5.446;2023-05-27T11:56:28;102673.47;;;21.05;45.38
78562;BME280;68963;52.138;5.446;2023-05-27T11:58:57;102664.72;;;21.22;45.25
78562;BME280;68963;52.138;5.446;2023-05-27T12:01:24;102658.72;;;21.34;45.63
78562;BME280;68963;52.138;5.446;2023-05-27T12:03:52;102657.56;;;21.55;42.78
78562;BME280;68963;52.138;5.446;2023-05-27T12:06:18;102652.78;;;21.57;42.40
78562;BME280;68963;52.138;5.446;2023-05-27T12:08:45;102651.38;;;21.79;41.86
78562;BME280;68963;52.138;5.446;2023-05-27T12:11:11;102648.75;;;21.98;41.44
78562;BME280;68963;52.138;5.446;2023-05-27T12:13:38;102651.06;;;21.94;41.07
78562;BME280;68963;52.138;5.446;2023-05-27T12:16:05;102644.06;;;21.93;41.90
78562;BME280;68963;52.138;5.446;2023-05-27T12:18:32;102639.78;;;22.10;39.72
78562;BME280;68963;52.138;5.446;2023-05-27T12:20:58;102638.09;;;21.91;39.20
78562;BME280;68963;52.138;5.446;2023-05-27T12:23:25;102640.41;;;21.87;40.44
78562;BME280;68963;52.138;5.446;2023-05-27T12:25:51;102632.34;;;21.87;39.73
78562;BME280;68963;52.138;5.446;2023-05-27T12:28:18;102628.72;;;22.00;38.88
78562;BME280;68963;52.138;5.446;2023-05-27T12:30:44;102635.66;;;22.08;41.71
78562;BME280;68963;52.138;5.446;2023-05-27T12:33:12;102631.84;;;22.22;39.55
78562;BME280;68963;52.138;5.446;2023-05-27T12:35:39;102622.09;;;22.28;38.71
78562;BME280;68963;52.138;5.446;2023-05-27T12:38:07;102627.22;;;22.29;39.07
78562;BME280;68963;52.138;5.446;2023-05-27T12:40:33;102613.06;;;22.40;39.27
78562;BME280;68963;52.138;5.446;2023-05-27T12:43:00;102612.09;;;22.53;38.64
78562;BME280;68963;52.138;5.446;2023-05-27T12:45:30;102605.88;;;22.71;39.15
78562;BME280;68963;52.138;5.446;2023-05-27T12:48:00;102608.81;;;22.70;37.16
78562;BME280;68963;52.138;5.446;2023-05-27T12:50:26;102606.81;;;22.47;37.67
78562;BME280;68963;52.138;5.446;2023-05-27T12:52:53;102605.25;;;22.57;40.20
78562;BME280;68963;52.138;5.446;2023-05-27T12:55:20;102601.25;;;22.60;39.04
78562;BME280;68963;52.138;5.446;2023-05-27T12:57:52;102601.94;;;22.55;40.93
78562;BME280;68963;52.138;5.446;2023-05-27T13:00:19;102600.94;;;22.68;40.47
78562;BME280;68963;52.138;5.446;2023-05-27T13:02:46;102596.09;;;22.95;40.71
78562;BME280;68963;52.138;5.446;2023-05-27T13:05:14;102594.13;;;23.32;39.36